Time;durP1;ratioP1;P1;durP2;ratioP2;P2;SDS_P1;SDS_P2;PMS_P1;PMS_P2;Temp;Humidity;BMP_temperature;BMP_pressure;BME280_temperature;BME280_humidity;BME280_pressure;Samples;Min_cycle;Max_cycle;Signal;HPM_P1;HPM_P2
2023/12/26 00:00:13;;;;;;;348.43;328.57;;;;;;;;;;5050999;28;20435;-37
2023/12/26 00:02:40;;;;;;;383.13;362.23;;;;;;;;;;5050993;28;20445;-38
2023/12/26 00:05:08;;;;;;;384.40;362.10;;;;;;;;;;5050207;28;20463;-37
2023/12/26 00:07:36;;;;;;;382.63;360.00;;;;;;;;;;5053189;28;20807;-37
2023/12/26 00:10:03;;;;;;;374.43;352.43;;;;;;;;;;5050912;28;20562;-40
2023/12/26 00:12:32;;;;;;;387.37;366.23;;;;;;;;;;5054962;28;20518;-37
2023/12/26 00:15:00;;;;;;;365.17;342.73;;;;;;;;;;5054469;28;20535;-38
2023/12/26 00:17:28;;;;;;;370.67;348.87;;;;;;;;;;5054588;28;20890;-37
2023/12/26 00:19:55;;;;;;;382.23;361.07;;;;;;;;;;5054785;28;20492;-37
2023/12/26 00:22:23;;;;;;;388.33;365.20;;;;;;;;;;5038771;28;20470;-37
2023/12/26 00:24:52;;;;;;;389.63;366.73;;;;;;;;;;5054153;28;20553;-37
2023/12/26 00:27:20;;;;;;;393.03;370.77;;;;;;;;;;5054104;28;20427;-38
2023/12/26 00:29:49;;;;;;;404.87;381.93;;;;;;;;;;5055059;28;20470;-38
2023/12/26 00:32:17;;;;;;;395.60;371.60;;;;;;;;;;5054822;28;20811;-37
2023/12/26 00:34:44;;;;;;;379.40;356.70;;;;;;;;;;5054277;28;21231;-39
2023/12/26 00:37:12;;;;;;;384.20;361.80;;;;;;;;;;5054044;28;20952;-39
2023/12/26 00:39:40;;;;;;;383.37;361.47;;;;;;;;;;5054256;28;20455;-38
2023/12/26 00:42:07;;;;;;;389.87;366.83;;;;;;;;;;5054082;28;20434;-37
2023/12/26 00:44:39;;;;;;;391.43;369.20;;;;;;;;;;5053856;28;20884;-37
2023/12/26 00:47:08;;;;;;;386.10;364.00;;;;;;;;;;5053431;28;20449;-37
2023/12/26 00:49:36;;;;;;;391.83;369.10;;;;;;;;;;5054107;28;20864;-38
2023/12/26 00:52:03;;;;;;;386.70;363.80;;;;;;;;;;5054007;28;20450;-40
2023/12/26 00:54:31;;;;;;;384.53;362.53;;;;;;;;;;5053230;28;20878;-37
2023/12/26 00:56:59;;;;;;;386.70;364.20;;;;;;;;;;5053880;28;20530;-38
2023/12/26 00:59:26;;;;;;;385.40;363.67;;;;;;;;;;5053834;28;20545;-37
2023/12/26 01:01:54;;;;;;;378.30;356.63;;;;;;;;;;5053971;28;20443;-37
2023/12/26 01:04:23;;;;;;;375.30;352.60;;;;;;;;;;5053201;28;20442;-38
2023/12/26 01:06:50;;;;;;;380.57;359.40;;;;;;;;;;5053534;28;20446;-37
2023/12/26 01:09:18;;;;;;;387.83;365.83;;;;;;;;;;5053634;28;20467;-37
2023/12/26 01:11:46;;;;;;;360.33;339.07;;;;;;;;;;5053873;28;20457;-37
2023/12/26 01:14:13;;;;;;;398.37;374.90;;;;;;;;;;5053086;28;20950;-37
2023/12/26 01:16:44;;;;;;;379.47;358.10;;;;;;;;;;5053580;28;20471;-39
2023/12/26 01:19:12;;;;;;;389.97;368.73;;;;;;;;;;5053182;28;20466;-38
2023/12/26 01:21:42;;;;;;;389.47;368.60;;;;;;;;;;5045148;28;20503;-37
2023/12/26 01:24:09;;;;;;;402.10;380.00;;;;;;;;;;5053354;28;20546;-39
2023/12/26 01:26:37;;;;;;;383.07;362.03;;;;;;;;;;5053476;28;20443;-37
2023/12/26 01:29:07;;;;;;;377.43;357.03;;;;;;;;;;5053012;28;20532;-37
2023/12/26 01:31:35;;;;;;;388.90;367.90;;;;;;;;;;5053451;28;20578;-39
2023/12/26 01:34:03;;;;;;;392.63;371.53;;;;;;;;;;5053032;28;20787;-37
2023/12/26 01:36:30;;;;;;;386.07;364.03;;;;;;;;;;5053034;28;20466;-37
2023/12/26 01:38:59;;;;;;;397.27;376.53;;;;;;;;;;5053102;28;20502;-37
2023/12/26 01:41:27;;;;;;;390.23;368.87;;;;;;;;;;5037476;28;20436;-38
2023/12/26 01:43:55;;;;;;;395.17;374.13;;;;;;;;;;5053203;28;20439;-37
2023/12/26 01:46:22;;;;;;;396.57;375.93;;;;;;;;;;5052706;28;20826;-37
2023/12/26 01:48:51;;;;;;;388.77;368.33;;;;;;;;;;5052581;28;20470;-37
2023/12/26 01:51:20;;;;;;;392.20;371.50;;;;;;;;;;5052913;28;20482;-37
2023/12/26 01:53:48;;;;;;;393.00;372.30;;;;;;;;;;5049884;28;20435;-37
2023/12/26 01:56:17;;;;;;;385.77;365.83;;;;;;;;;;5051768;28;20486;-37
2023/12/26 01:58:46;;;;;;;382.93;362.93;;;;;;;;;;5052394;28;20463;-37
2023/12/26 02:01:14;;;;;;;386.20;365.47;;;;;;;;;;5052550;28;20510;-37
2023/12/26 02:03:42;;;;;;;380.40;359.70;;;;;;;;;;5050265;28;20733;-37
2023/12/26 02:06:10;;;;;;;386.03;364.03;;;;;;;;;;5051526;28;20850;-39
2023/12/26 02:08:38;;;;;;;349.93;328.73;;;;;;;;;;5052334;28;20547;-39
2023/12/26 02:11:06;;;;;;;373.20;352.47;;;;;;;;;;5052536;28;20525;-37
2023/12/26 02:13:36;;;;;;;378.70;356.73;;;;;;;;;;5052613;28;20488;-37
2023/12/26 02:16:07;;;;;;;375.80;354.97;;;;;;;;;;5051929;28;20561;-37
2023/12/26 02:18:35;;;;;;;379.33;357.30;;;;;;;;;;5052324;28;20516;-37
2023/12/26 02:21:04;;;;;;;363.93;343.60;;;;;;;;;;5051683;28;20858;-37
2023/12/26 02:23:32;;;;;;;359.97;339.27;;;;;;;;;;5052410;28;20446;-39
2023/12/26 02:26:02;;;;;;;363.33;342.00;;;;;;;;;;5051740;28;20520;-38
2023/12/26 02:28:30;;;;;;;371.90;350.10;;;;;;;;;;5051718;28;20517;-37
2023/12/26 02:30:59;;;;;;;362.37;340.47;;;;;;;;;;5051596;28;20892;-37
2023/12/26 02:33:27;;;;;;;379.00;356.60;;;;;;;;;;5052916;28;20523;-39
2023/12/26 02:35:55;;;;;;;380.30;358.67;;;;;;;;;;5051960;28;20467;-37
2023/12/26 02:38:22;;;;;;;386.20;366.03;;;;;;;;;;5051635;28;20466;-37
2023/12/26 02:40:52;;;;;;;394.27;372.77;;;;;;;;;;5051857;28;21013;-39
2023/12/26 02:43:21;;;;;;;379.53;358.80;;;;;;;;;;5051969;28;20442;-39
2023/12/26 02:45:49;;;;;;;388.40;366.40;;;;;;;;;;5051677;28;20566;-38
2023/12/26 02:48:17;;;;;;;384.13;363.20;;;;;;;;;;5051578;28;20970;-37
2023/12/26 02:50:45;;;;;;;360.17;339.50;;;;;;;;;;5051942;28;20475;-42
2023/12/26 02:53:13;;;;;;;393.40;372.13;;;;;;;;;;5051249;28;20443;-39
2023/12/26 02:55:40;;;;;;;398.27;377.50;;;;;;;;;;5051546;28;20494;-39
2023/12/26 02:58:09;;;;;;;376.97;356.47;;;;;;;;;;5051172;28;20455;-38
2023/12/26 03:00:38;;;;;;;392.50;371.10;;;;;;;;;;5051764;28;20448;-38
2023/12/26 03:03:06;;;;;;;383.03;362.40;;;;;;;;;;5051207;28;21200;-42
2023/12/26 03:05:34;;;;;;;346.03;325.17;;;;;;;;;;5051069;28;20470;-37
2023/12/26 03:08:02;;;;;;;362.30;340.80;;;;;;;;;;5051448;28;20550;-37
2023/12/26 03:10:30;;;;;;;363.37;342.47;;;;;;;;;;5051133;28;20922;-37
2023/12/26 03:12:57;;;;;;;353.03;331.10;;;;;;;;;;5051582;28;20442;-38
2023/12/26 03:15:25;;;;;;;372.13;351.33;;;;;;;;;;5050742;28;20473;-37
2023/12/26 03:17:54;;;;;;;387.20;365.10;;;;;;;;;;5051025;28;20490;-38
2023/12/26 03:20:22;;;;;;;382.40;359.70;;;;;;;;;;5050054;28;20443;-37
2023/12/26 03:22:50;;;;;;;387.90;365.20;;;;;;;;;;5051352;28;20443;-37
2023/12/26 03:25:17;;;;;;;399.87;376.50;;;;;;;;;;5050686;28;20513;-37
2023/12/26 03:27:45;;;;;;;407.20;385.87;;;;;;;;;;5050734;28;20489;-40
2023/12/26 03:30:13;;;;;;;395.73;374.23;;;;;;;;;;5051037;28;20860;-39
2023/12/26 03:32:40;;;;;;;385.00;364.07;;;;;;;;;;5051269;28;20475;-37
2023/12/26 03:35:10;;;;;;;388.30;366.07;;;;;;;;;;5050531;28;20459;-38
2023/12/26 03:37:38;;;;;;;394.43;370.57;;;;;;;;;;5046846;28;20513;-37
2023/12/26 03:40:06;;;;;;;382.33;361.50;;;;;;;;;;5051209;28;20439;-37
2023/12/26 03:42:34;;;;;;;374.63;353.90;;;;;;;;;;5051464;28;20530;-37
2023/12/26 03:45:02;;;;;;;394.43;373.07;;;;;;;;;;5050661;28;20463;-39
2023/12/26 03:47:30;;;;;;;392.30;371.40;;;;;;;;;;5050506;28;20794;-37
2023/12/26 03:49:57;;;;;;;363.53;342.93;;;;;;;;;;5051287;28;20435;-37
2023/12/26 03:52:26;;;;;;;373.83;352.50;;;;;;;;;;5050862;28;20472;-40
2023/12/26 03:54:56;;;;;;;367.00;345.57;;;;;;;;;;5050541;28;20501;-37
2023/12/26 03:57:24;;;;;;;383.63;362.80;;;;;;;;;;5050513;28;20451;-37
2023/12/26 03:59:52;;;;;;;373.07;351.50;;;;;;;;;;5051007;28;20438;-36
2023/12/26 04:02:19;;;;;;;366.50;345.00;;;;;;;;;;5054470;28;20435;-36
2023/12/26 04:04:47;;;;;;;370.47;350.20;;;;;;;;;;5054473;28;20513;-35
2023/12/26 04:07:15;;;;;;;383.83;363.03;;;;;;;;;;5052963;28;20443;-35
2023/12/26 04:09:45;;;;;;;370.30;349.40;;;;;;;;;;5049192;28;20490;-35
2023/12/26 04:12:13;;;;;;;374.23;353.80;;;;;;;;;;5052182;28;20467;-36
2023/12/26 04:14:40;;;;;;;371.37;350.67;;;;;;;;;;5053334;28;20459;-35
2023/12/26 04:17:08;;;;;;;370.47;350.07;;;;;;;;;;5052930;28;20474;-35
2023/12/26 04:19:36;;;;;;;381.90;361.57;;;;;;;;;;5036637;28;20463;-36
2023/12/26 04:22:04;;;;;;;375.10;354.30;;;;;;;;;;5053659;28;20438;-35
2023/12/26 04:24:31;;;;;;;364.47;344.67;;;;;;;;;;5052128;28;20605;-36
2023/12/26 04:27:00;;;;;;;383.30;362.60;;;;;;;;;;5053162;28;20546;-35
2023/12/26 04:29:28;;;;;;;375.37;354.83;;;;;;;;;;5053571;28;20555;-36
2023/12/26 04:31:55;;;;;;;371.33;350.57;;;;;;;;;;5052282;28;20499;-35
2023/12/26 04:34:23;;;;;;;373.30;353.77;;;;;;;;;;5053107;28;20513;-35
2023/12/26 04:36:51;;;;;;;378.53;358.40;;;;;;;;;;5053904;28;20471;-35
2023/12/26 04:39:18;;;;;;;362.50;341.30;;;;;;;;;;5055091;28;20877;-35
2023/12/26 04:41:47;;;;;;;358.00;336.87;;;;;;;;;;5054626;28;20443;-35
2023/12/26 04:44:16;;;;;;;351.30;332.73;;;;;;;;;;5053709;28;20442;-35
2023/12/26 04:46:43;;;;;;;348.57;329.23;;;;;;;;;;5053896;28;20859;-36
2023/12/26 04:49:11;;;;;;;347.23;329.27;;;;;;;;;;5055976;28;20513;-35
2023/12/26 04:51:39;;;;;;;355.13;336.20;;;;;;;;;;5047229;28;20472;-35
2023/12/26 04:54:06;;;;;;;350.63;332.53;;;;;;;;;;5053189;28;20435;-35
2023/12/26 04:56:36;;;;;;;329.70;313.00;;;;;;;;;;5057022;28;20483;-37
2023/12/26 04:59:04;;;;;;;331.70;314.53;;;;;;;;;;5048865;28;20459;-35
2023/12/26 05:01:33;;;;;;;337.77;320.80;;;;;;;;;;5055972;28;20534;-35
2023/12/26 05:04:00;;;;;;;335.10;317.50;;;;;;;;;;5057172;28;20439;-35
2023/12/26 05:06:28;;;;;;;349.63;331.07;;;;;;;;;;5047563;28;20460;-36
2023/12/26 05:08:56;;;;;;;342.93;324.23;;;;;;;;;;5048281;28;20466;-36
2023/12/26 05:11:24;;;;;;;333.90;316.60;;;;;;;;;;5039941;28;20441;-36
2023/12/26 05:13:52;;;;;;;334.00;317.37;;;;;;;;;;5056949;28;20435;-36
2023/12/26 05:16:20;;;;;;;345.07;327.57;;;;;;;;;;5056153;28;20557;-36
2023/12/26 05:18:49;;;;;;;342.13;323.27;;;;;;;;;;5056325;28;20833;-35
2023/12/26 05:21:17;;;;;;;363.77;344.87;;;;;;;;;;5050646;28;20436;-36
2023/12/26 05:23:45;;;;;;;359.77;341.87;;;;;;;;;;5056433;28;20489;-35
2023/12/26 05:26:13;;;;;;;355.30;336.97;;;;;;;;;;5056097;28;20490;-35
2023/12/26 05:28:40;;;;;;;360.70;340.83;;;;;;;;;;5040266;28;20459;-35
2023/12/26 05:31:08;;;;;;;362.90;343.83;;;;;;;;;;5056042;28;20526;-35
2023/12/26 05:33:40;;;;;;;354.17;336.03;;;;;;;;;;5047960;28;20505;-35
2023/12/26 05:36:10;;;;;;;351.83;332.73;;;;;;;;;;5055160;28;20459;-36
2023/12/26 05:38:38;;;;;;;351.33;333.53;;;;;;;;;;5055973;28;20463;-35
2023/12/26 05:41:06;;;;;;;347.37;326.40;;;;;;;;;;5048249;28;20435;-35
2023/12/26 05:43:33;;;;;;;352.43;333.43;;;;;;;;;;5055333;28;20478;-35
2023/12/26 05:46:01;;;;;;;358.30;338.20;;;;;;;;;;5050310;28;20554;-39
2023/12/26 05:48:29;;;;;;;368.47;349.70;;;;;;;;;;5055217;28;20474;-35
2023/12/26 05:50:56;;;;;;;328.60;309.50;;;;;;;;;;5056091;28;20473;-35
2023/12/26 05:53:29;;;;;;;348.10;328.30;;;;;;;;;;5050844;28;20471;-35
2023/12/26 05:55:57;;;;;;;345.43;326.40;;;;;;;;;;5056245;28;20463;-35
2023/12/26 05:58:25;;;;;;;347.90;327.70;;;;;;;;;;5055470;28;20466;-37
2023/12/26 06:00:53;;;;;;;345.13;327.13;;;;;;;;;;5055433;28;20442;-35
2023/12/26 06:03:21;;;;;;;334.33;316.93;;;;;;;;;;5054970;28;20439;-35
2023/12/26 06:05:49;;;;;;;344.87;326.70;;;;;;;;;;5054799;28;20494;-37
2023/12/26 06:08:17;;;;;;;324.53;307.50;;;;;;;;;;5055012;28;20833;-35
2023/12/26 06:10:46;;;;;;;326.30;308.70;;;;;;;;;;5054735;28;21244;-35
2023/12/26 06:13:13;;;;;;;325.97;308.93;;;;;;;;;;5055913;28;20534;-36
2023/12/26 06:15:41;;;;;;;336.43;318.93;;;;;;;;;;5054519;28;20475;-37
2023/12/26 06:18:08;;;;;;;323.80;306.30;;;;;;;;;;5055219;28;20506;-36
2023/12/26 06:20:36;;;;;;;325.03;306.93;;;;;;;;;;5052108;28;20446;-36
2023/12/26 06:23:04;;;;;;;328.53;310.20;;;;;;;;;;5055515;28;20431;-35
2023/12/26 06:25:32;;;;;;;338.07;320.77;;;;;;;;;;5055028;28;20462;-36
2023/12/26 06:28:01;;;;;;;343.63;325.30;;;;;;;;;;5051261;28;20467;-35
2023/12/26 06:30:28;;;;;;;332.13;315.83;;;;;;;;;;5054828;28;20926;-35
2023/12/26 06:32:56;;;;;;;328.83;312.90;;;;;;;;;;5055305;28;20478;-35
2023/12/26 06:35:25;;;;;;;334.03;317.23;;;;;;;;;;5053999;28;20550;-35
2023/12/26 06:37:52;;;;;;;326.77;309.27;;;;;;;;;;5056552;28;20550;-35
2023/12/26 06:40:20;;;;;;;326.77;310.37;;;;;;;;;;5056291;28;20445;-35
2023/12/26 06:42:48;;;;;;;330.20;313.63;;;;;;;;;;5057053;28;20447;-35
2023/12/26 06:45:17;;;;;;;324.73;308.20;;;;;;;;;;5056177;28;20459;-35
2023/12/26 06:47:44;;;;;;;335.37;318.90;;;;;;;;;;5056106;28;20491;-35
2023/12/26 06:50:12;;;;;;;337.73;320.67;;;;;;;;;;5055900;28;20447;-35
2023/12/26 06:52:40;;;;;;;321.60;305.60;;;;;;;;;;5056154;28;20435;-37
2023/12/26 06:55:08;;;;;;;327.90;310.90;;;;;;;;;;5050633;28;20512;-35
2023/12/26 06:57:35;;;;;;;328.67;312.47;;;;;;;;;;5054688;28;20443;-35
2023/12/26 07:00:05;;;;;;;335.27;318.57;;;;;;;;;;5056397;28;20462;-36
2023/12/26 07:02:34;;;;;;;327.80;311.80;;;;;;;;;;5047312;28;20441;-36
2023/12/26 07:05:02;;;;;;;323.27;307.63;;;;;;;;;;5054802;28;20879;-35
2023/12/26 07:07:29;;;;;;;308.97;294.20;;;;;;;;;;5056509;28;20525;-35
2023/12/26 07:09:57;;;;;;;304.60;289.90;;;;;;;;;;5056126;28;20527;-35
2023/12/26 07:12:24;;;;;;;307.93;293.43;;;;;;;;;;5055549;28;20440;-36
2023/12/26 07:14:52;;;;;;;326.30;309.60;;;;;;;;;;5054299;28;21135;-35
2023/12/26 07:17:20;;;;;;;338.70;322.10;;;;;;;;;;5046122;28;20437;-35
2023/12/26 07:19:49;;;;;;;335.83;320.00;;;;;;;;;;5054729;28;20458;-38
2023/12/26 07:22:17;;;;;;;340.40;322.40;;;;;;;;;;5042988;28;20439;-36
2023/12/26 07:24:44;;;;;;;331.40;314.90;;;;;;;;;;5053768;28;20534;-35
2023/12/26 07:27:12;;;;;;;331.70;315.30;;;;;;;;;;5054607;28;20435;-35
2023/12/26 07:29:39;;;;;;;306.60;291.60;;;;;;;;;;5045437;28;20790;-35
2023/12/26 07:32:07;;;;;;;312.90;297.33;;;;;;;;;;5054159;28;20903;-35
2023/12/26 07:34:35;;;;;;;302.47;286.73;;;;;;;;;;5054050;28;20482;-35
2023/12/26 07:37:04;;;;;;;311.53;296.00;;;;;;;;;;5054144;28;20462;-35
2023/12/26 07:39:32;;;;;;;302.37;287.00;;;;;;;;;;5043347;28;20483;-35
2023/12/26 07:42:00;;;;;;;306.43;290.70;;;;;;;;;;5052108;28;20439;-35
2023/12/26 07:44:28;;;;;;;296.10;282.43;;;;;;;;;;5030651;28;20441;-35
2023/12/26 07:46:55;;;;;;;294.93;281.30;;;;;;;;;;5040095;28;20490;-35
2023/12/26 07:49:24;;;;;;;302.00;287.53;;;;;;;;;;5049001;28;20902;-36
2023/12/26 07:51:52;;;;;;;295.07;281.40;;;;;;;;;;5049903;28;20440;-36
2023/12/26 07:54:21;;;;;;;289.03;275.50;;;;;;;;;;5035615;28;20874;-38
2023/12/26 07:56:48;;;;;;;268.13;255.30;;;;;;;;;;5043084;28;20458;-36
2023/12/26 07:59:16;;;;;;;273.67;260.40;;;;;;;;;;5054689;28;20459;-36
2023/12/26 08:01:44;;;;;;;269.40;256.67;;;;;;;;;;5018106;28;20987;-36
2023/12/26 08:04:11;;;;;;;297.90;283.03;;;;;;;;;;5024546;28;20474;-37
2023/12/26 08:06:39;;;;;;;298.40;284.43;;;;;;;;;;5043825;28;20856;-35
2023/12/26 08:09:08;;;;;;;309.43;294.83;;;;;;;;;;5035561;28;20456;-35
2023/12/26 08:11:37;;;;;;;310.60;295.17;;;;;;;;;;5031569;28;21167;-35
2023/12/26 08:14:05;;;;;;;320.90;305.87;;;;;;;;;;5053852;28;20875;-35
2023/12/26 08:16:33;;;;;;;289.83;275.90;;;;;;;;;;5053867;28;20455;-36
2023/12/26 08:19:02;;;;;;;304.33;288.87;;;;;;;;;;5053195;28;20534;-35
2023/12/26 08:21:30;;;;;;;324.20;308.20;;;;;;;;;;5049685;28;20918;-39
2023/12/26 08:23:57;;;;;;;330.67;315.27;;;;;;;;;;5052944;28;20521;-35
2023/12/26 08:26:30;;;;;;;337.07;320.67;;;;;;;;;;5053520;28;20455;-36
2023/12/26 08:28:59;;;;;;;344.37;326.87;;;;;;;;;;5055988;28;20487;-35
2023/12/26 08:31:27;;;;;;;346.60;329.10;;;;;;;;;;5048528;28;20448;-38
2023/12/26 08:33:54;;;;;;;344.10;328.30;;;;;;;;;;5042196;28;20470;-35
2023/12/26 08:36:22;;;;;;;338.03;321.40;;;;;;;;;;5047894;28;20454;-39
2023/12/26 08:38:50;;;;;;;343.17;326.37;;;;;;;;;;5049009;28;20518;-37
2023/12/26 08:41:18;;;;;;;339.27;323.57;;;;;;;;;;5058499;28;20434;-35
2023/12/26 08:43:45;;;;;;;337.53;322.33;;;;;;;;;;5059204;28;20461;-35
2023/12/26 08:46:15;;;;;;;332.67;317.20;;;;;;;;;;5050668;28;20491;-35
2023/12/26 08:48:43;;;;;;;326.07;309.60;;;;;;;;;;5052368;28;20448;-36
2023/12/26 08:51:10;;;;;;;331.23;316.00;;;;;;;;;;5052285;28;20866;-36
2023/12/26 08:53:38;;;;;;;330.57;314.50;;;;;;;;;;5053787;28;20929;-36
2023/12/26 08:56:06;;;;;;;336.43;320.17;;;;;;;;;;5045546;28;20489;-35
2023/12/26 08:58:34;;;;;;;328.10;311.83;;;;;;;;;;5049426;28;20467;-35
2023/12/26 09:01:02;;;;;;;322.27;306.87;;;;;;;;;;5058357;28;20481;-35
2023/12/26 09:03:31;;;;;;;323.40;307.57;;;;;;;;;;5053554;28;20427;-35
2023/12/26 09:05:59;;;;;;;325.00;308.70;;;;;;;;;;5054341;28;21025;-36
2023/12/26 09:08:27;;;;;;;314.23;299.00;;;;;;;;;;5046825;28;20463;-36
2023/12/26 09:10:54;;;;;;;315.80;299.83;;;;;;;;;;5058431;28;20435;-35
2023/12/26 09:13:26;;;;;;;309.60;294.80;;;;;;;;;;5057626;28;20451;-35
2023/12/26 09:15:54;;;;;;;329.63;313.57;;;;;;;;;;5056627;28;20459;-35
2023/12/26 09:18:21;;;;;;;329.20;312.13;;;;;;;;;;5044160;28;20533;-36
2023/12/26 09:20:50;;;;;;;324.70;309.70;;;;;;;;;;5037516;28;20443;-36
2023/12/26 09:23:19;;;;;;;313.70;298.80;;;;;;;;;;5047497;28;20446;-35
2023/12/26 09:25:47;;;;;;;316.40;300.80;;;;;;;;;;5056260;28;20474;-35
2023/12/26 09:28:15;;;;;;;320.50;303.97;;;;;;;;;;5057904;28;20455;-35
2023/12/26 09:30:43;;;;;;;313.03;296.90;;;;;;;;;;5049175;28;20497;-38
2023/12/26 09:33:10;;;;;;;318.43;303.30;;;;;;;;;;5044442;28;20436;-35
2023/12/26 09:35:38;;;;;;;310.07;294.70;;;;;;;;;;5036830;28;20500;-35
2023/12/26 09:38:07;;;;;;;302.67;287.27;;;;;;;;;;5051157;28;20845;-36
2023/12/26 09:40:36;;;;;;;309.17;293.67;;;;;;;;;;5051593;28;20435;-35
2023/12/26 09:45:32;;;;;;;320.90;305.00;;;;;;;;;;5015926;28;20440;-38
2023/12/26 09:48:00;;;;;;;325.60;311.00;;;;;;;;;;5014643;28;20463;-38
2023/12/26 09:50:28;;;;;;;320.27;304.80;;;;;;;;;;5034143;28;20504;-37
2023/12/26 09:52:59;;;;;;;312.63;297.20;;;;;;;;;;5028704;28;20461;-37
2023/12/26 09:55:29;;;;;;;305.37;290.13;;;;;;;;;;5009345;28;20554;-37
2023/12/26 09:57:57;;;;;;;308.73;292.97;;;;;;;;;;4996749;28;20529;-36
2023/12/26 10:00:25;;;;;;;310.67;295.67;;;;;;;;;;5012591;28;20440;-39
2023/12/26 10:02:55;;;;;;;315.30;298.60;;;;;;;;;;5000965;28;20430;-36
2023/12/26 10:05:23;;;;;;;310.37;295.07;;;;;;;;;;4998582;28;20999;-36
2023/12/26 10:07:51;;;;;;;304.20;289.10;;;;;;;;;;5002383;28;20442;-36
2023/12/26 10:10:20;;;;;;;307.23;292.17;;;;;;;;;;5003204;28;20445;-36
2023/12/26 10:12:50;;;;;;;304.57;289.17;;;;;;;;;;5012552;28;20528;-38
2023/12/26 10:15:18;;;;;;;291.40;278.10;;;;;;;;;;5014993;28;20991;-36
2023/12/26 10:17:46;;;;;;;297.47;282.53;;;;;;;;;;5000769;28;20438;-36
2023/12/26 10:20:15;;;;;;;303.87;287.60;;;;;;;;;;5010330;28;20448;-39
2023/12/26 10:22:43;;;;;;;298.70;284.63;;;;;;;;;;5000211;28;20434;-36
2023/12/26 10:25:12;;;;;;;292.10;277.70;;;;;;;;;;5012246;28;20519;-41
2023/12/26 10:27:40;;;;;;;291.17;277.43;;;;;;;;;;5000314;28;20719;-35
2023/12/26 10:30:17;;;;;;;291.53;277.37;;;;;;;;;;5002377;28;20857;-38
2023/12/26 10:32:45;;;;;;;307.50;292.47;;;;;;;;;;5012951;28;20440;-36
2023/12/26 10:35:14;;;;;;;330.93;314.10;;;;;;;;;;5002056;28;20485;-36
2023/12/26 10:37:42;;;;;;;338.57;320.80;;;;;;;;;;5015028;28;20442;-36
2023/12/26 10:40:10;;;;;;;338.97;321.83;;;;;;;;;;5016199;28;20519;-36
2023/12/26 10:42:40;;;;;;;337.73;321.77;;;;;;;;;;5002866;28;20485;-36
2023/12/26 10:45:09;;;;;;;332.40;315.23;;;;;;;;;;5005815;28;20913;-36
2023/12/26 10:47:41;;;;;;;331.93;315.83;;;;;;;;;;5000821;28;20434;-36
2023/12/26 10:50:10;;;;;;;337.33;321.53;;;;;;;;;;5000706;28;20434;-36
2023/12/26 10:52:40;;;;;;;321.17;305.20;;;;;;;;;;5010827;28;20441;-36
2023/12/26 10:55:09;;;;;;;318.10;302.17;;;;;;;;;;4994454;28;20480;-36
2023/12/26 10:57:37;;;;;;;305.73;292.03;;;;;;;;;;5003038;28;20521;-37
2023/12/26 13:52:29;;;;;;;284.90;273.50;;;;;;;;;;5006800;28;20950;-35
2023/12/26 13:55:16;;;;;;;279.83;268.83;;;;;;;;;;5007765;28;20524;-36
2023/12/26 13:58:02;;;;;;;292.40;280.90;;;;;;;;;;5014559;28;20465;-36
2023/12/26 14:00:48;;;;;;;301.47;289.53;;;;;;;;;;4994727;28;20434;-35
2023/12/26 14:03:35;;;;;;;301.37;289.33;;;;;;;;;;5003736;28;20468;-38
2023/12/26 14:06:21;;;;;;;305.23;292.93;;;;;;;;;;5006088;28;21186;-35
2023/12/26 14:09:08;;;;;;;303.53;291.23;;;;;;;;;;5002837;28;20965;-38
2023/12/26 14:11:54;;;;;;;301.03;288.83;;;;;;;;;;5013422;28;20429;-35
2023/12/26 14:14:41;;;;;;;301.47;288.60;;;;;;;;;;4987709;28;20549;-35
2023/12/26 14:17:27;;;;;;;303.03;290.33;;;;;;;;;;5010195;28;20579;-35
2023/12/26 14:20:13;;;;;;;311.10;298.60;;;;;;;;;;5012037;28;20952;-36
2023/12/26 14:22:59;;;;;;;315.10;302.00;;;;;;;;;;4988546;28;20442;-38
2023/12/26 14:25:45;;;;;;;308.83;296.53;;;;;;;;;;5005857;28;20871;-35
2023/12/26 14:28:31;;;;;;;314.03;301.33;;;;;;;;;;5005089;28;21069;-35
2023/12/26 14:31:18;;;;;;;318.23;305.20;;;;;;;;;;4995080;28;20598;-35
2023/12/26 14:34:05;;;;;;;317.67;304.67;;;;;;;;;;5000387;28;20898;-35
2023/12/26 14:36:52;;;;;;;321.97;308.43;;;;;;;;;;5005011;28;20476;-37
2023/12/26 14:39:38;;;;;;;316.67;303.47;;;;;;;;;;4992746;28;20930;-35
2023/12/26 14:42:24;;;;;;;319.30;305.30;;;;;;;;;;5001679;28;20866;-35
2023/12/26 14:45:11;;;;;;;319.67;306.23;;;;;;;;;;5007306;28;20518;-35
2023/12/26 14:47:57;;;;;;;328.53;314.67;;;;;;;;;;5007403;28;20950;-35
2023/12/26 14:50:44;;;;;;;323.20;309.30;;;;;;;;;;5002347;28;20441;-36
2023/12/26 14:53:30;;;;;;;326.60;312.90;;;;;;;;;;5005033;28;20469;-35
2023/12/26 14:56:16;;;;;;;317.80;303.93;;;;;;;;;;5006737;28;20542;-35
2023/12/26 14:59:02;;;;;;;317.23;302.90;;;;;;;;;;5015540;28;20524;-35
2023/12/26 15:01:48;;;;;;;316.60;302.60;;;;;;;;;;5014668;28;20520;-35
2023/12/26 15:04:17;;;;;;;314.20;300.93;;;;;;;;;;4989965;28;20501;-35
2023/12/26 15:06:45;;;;;;;313.67;300.03;;;;;;;;;;5006246;28;20757;-39
2023/12/26 15:09:14;;;;;;;313.10;299.67;;;;;;;;;;4991741;28;20771;-35
2023/12/26 15:11:41;;;;;;;296.60;283.90;;;;;;;;;;5003059;28;20874;-35
2023/12/26 15:14:11;;;;;;;298.30;284.90;;;;;;;;;;5012449;28;20512;-35
2023/12/26 15:16:58;;;;;;;290.53;278.43;;;;;;;;;;5003336;28;20501;-36
2023/12/26 15:19:27;;;;;;;296.10;283.80;;;;;;;;;;5006863;28;20600;-35
2023/12/26 15:21:55;;;;;;;290.00;277.80;;;;;;;;;;5006528;28;20854;-35
2023/12/26 15:24:23;;;;;;;288.87;276.70;;;;;;;;;;5000782;28;20540;-36
2023/12/26 15:26:50;;;;;;;294.10;281.53;;;;;;;;;;4995174;28;20430;-35
2023/12/26 15:29:18;;;;;;;290.30;277.93;;;;;;;;;;5006047;28;20451;-35
2023/12/26 15:31:46;;;;;;;275.80;264.10;;;;;;;;;;5013989;28;20556;-35
2023/12/26 15:34:14;;;;;;;279.30;266.90;;;;;;;;;;5014143;28;20823;-35
2023/12/26 15:36:44;;;;;;;264.47;253.67;;;;;;;;;;5012252;28;20480;-35
2023/12/26 15:39:12;;;;;;;272.93;261.73;;;;;;;;;;5014526;28;20437;-35
2023/12/26 15:41:46;;;;;;;258.73;248.03;;;;;;;;;;5015545;28;20467;-36
2023/12/26 15:44:14;;;;;;;267.07;254.90;;;;;;;;;;5014298;28;20531;-35
2023/12/26 15:46:42;;;;;;;263.87;252.77;;;;;;;;;;5011168;28;20429;-36
2023/12/26 15:49:09;;;;;;;253.03;242.60;;;;;;;;;;5004891;28;20964;-35
2023/12/26 15:51:37;;;;;;;260.50;248.77;;;;;;;;;;5013867;28;20440;-35
2023/12/26 15:54:07;;;;;;;263.40;251.53;;;;;;;;;;5015344;28;20539;-35
2023/12/26 15:56:35;;;;;;;263.23;251.60;;;;;;;;;;5013059;28;20465;-35
2023/12/26 15:59:04;;;;;;;265.40;253.50;;;;;;;;;;5014169;28;20491;-35
2023/12/26 16:01:32;;;;;;;276.13;264.23;;;;;;;;;;5019406;22;20469;-37
2023/12/26 16:03:59;;;;;;;274.70;263.00;;;;;;;;;;5010178;28;20479;-37
2023/12/26 16:06:27;;;;;;;264.63;253.17;;;;;;;;;;5011566;28;20548;-39
2023/12/26 16:08:56;;;;;;;272.53;260.33;;;;;;;;;;5011488;28;20444;-37
2023/12/26 16:11:25;;;;;;;261.57;250.57;;;;;;;;;;5011719;28;20457;-38
2023/12/26 16:13:53;;;;;;;263.03;251.10;;;;;;;;;;5011453;28;20448;-37
2023/12/26 16:16:20;;;;;;;262.30;251.43;;;;;;;;;;5011618;28;20457;-36
2023/12/26 16:18:49;;;;;;;257.20;246.27;;;;;;;;;;5010955;28;20512;-37
2023/12/26 16:21:18;;;;;;;260.27;249.00;;;;;;;;;;5011401;28;20437;-37
2023/12/26 16:23:46;;;;;;;260.50;248.77;;;;;;;;;;5007419;28;20897;-36
2023/12/26 16:26:14;;;;;;;278.30;266.93;;;;;;;;;;5011995;28;20463;-37
2023/12/26 16:28:43;;;;;;;268.50;257.17;;;;;;;;;;5006064;28;20798;-36
2023/12/26 16:31:13;;;;;;;276.33;264.70;;;;;;;;;;5009945;28;20971;-36
2023/12/26 16:33:41;;;;;;;282.10;270.00;;;;;;;;;;5008895;28;21008;-37
2023/12/26 16:36:09;;;;;;;280.67;268.83;;;;;;;;;;5010589;28;20511;-36
2023/12/26 16:38:38;;;;;;;284.07;272.43;;;;;;;;;;5009903;28;20476;-36
2023/12/26 16:41:06;;;;;;;281.93;269.37;;;;;;;;;;5009254;28;20456;-37
2023/12/26 16:43:34;;;;;;;288.37;275.50;;;;;;;;;;5007562;28;20523;-38
2023/12/26 16:46:07;;;;;;;286.77;273.77;;;;;;;;;;5008040;28;20474;-39
2023/12/26 16:48:35;;;;;;;285.10;272.20;;;;;;;;;;5012178;28;20448;-36
2023/12/26 16:51:07;;;;;;;294.40;280.70;;;;;;;;;;5015159;28;20440;-37
2023/12/26 16:53:35;;;;;;;284.03;271.40;;;;;;;;;;5012106;28;20547;-37
2023/12/26 16:56:06;;;;;;;287.57;274.83;;;;;;;;;;4999926;28;20474;-38
2023/12/26 16:58:34;;;;;;;294.50;281.40;;;;;;;;;;5008552;28;20501;-38